METAR Data
IDs: Format: Raw Decoded Include TAF

Data at: 2124 UTC 06 Dec 2019

KFIT 061824Z AUTO 15005KT 3/4SM -SN BR OVC021 M01/M03 A2997 RMK AO2 P0000 T10111033
KFIT 061815Z AUTO 14005KT 1SM -SN OVC022 M01/M04 A2996 RMK AO2 P0000 T10061039
KFIT 061804Z AUTO 17004KT 1 1/4SM -SN BKN026 OVC034 M01/M04 A2997 RMK AO2 P0000 T10061044
KFIT 061752Z AUTO 19005KT 2 1/2SM -SN BKN028 OVC035 00/M04 A2999 RMK AO2 SNB18 SLP159 P0000 60000 T00001044 10006 21117 58025
KFIT 061652Z AUTO 22008KT 10SM BKN055 OVC070 01/M07 A3002 RMK AO2 SLP169 T00061072
KFIT 061552Z AUTO 21004KT 10SM OVC070 M01/M07 A3004 RMK AO2 SLP179 T10061072
KFIT 061452Z AUTO 00000KT 10SM BKN065 M04/M08 A3006 RMK AO2 SLP184 T10441083 50001
KFIT 061352Z AUTO 00000KT 10SM SCT065 M07/M09 A3007 RMK AO2 SLP187 T10671094
KFIT 061252Z AUTO 00000KT 10SM CLR M08/M11 A3007 RMK AO2 SLP187 T10831106
KFIT 061152Z AUTO 00000KT 10SM CLR M12/M13 A3005 RMK AO2 SLP183 I1000 I6000 T11171133 11039 21117 52008
KFIT 061052Z AUTO 00000KT 10SM FEW085 M11/M13 A3005 RMK AO2 SLP181 T11111133
KFIT 060952Z AUTO 00000KT 10SM CLR M11/M13 A3004 RMK AO2 SLP177 T11061133
KFIT 060852Z AUTO 00000KT 10SM CLR M09/M13 A3003 RMK AO2 SLP175 T10941128 51017
KFIT 060752Z AUTO 00000KT 10SM CLR M09/M12 A3002 RMK AO2 SLP170 T10891122
KFIT 060652Z AUTO 30005KT 10SM CLR M06/M11 A3001 RMK AO2 SLP165 T10561111
KFIT 060552Z AUTO 27004KT 10SM CLR M05/M11 A2998 RMK AO2 SLP157 T10501106 10006 21056 51024
KFIT 060452Z AUTO 31006KT 10SM CLR M03/M11 A2996 RMK AO2 SLP148 T10281106 400501028
KFIT 060352Z AUTO 32008KT 10SM FEW044 M02/M11 A2995 RMK AO2 SLP144 T10221106
KFIT 060252Z AUTO 32012G22KT 10SM BKN043 M01/M10 A2991 RMK AO2 SLP132 T10111100 53035
KFIT 060152Z AUTO 30012KT 10SM CLR M01/M09 A2987 RMK AO2 SLP119 T10061089
KFIT 060052Z AUTO 29010G19KT 10SM CLR M01/M09 A2984 RMK AO2 SLP109 T10061089
KFIT 052352Z AUTO 28012G21KT 10SM BKN055 01/M09 A2981 RMK AO2 SLP098 T00061089 10044 20006 51029
KFIT 052252Z AUTO 28015G26KT 10SM SCT055 01/M09 A2978 RMK AO2 PK WND 27026/2250 SLP089 T00111094
KFIT 052152Z AUTO 30013KT 10SM CLR 02/M09 A2975 RMK AO2 SLP078 T00221089
KFIT 052052Z AUTO 29016G22KT 10SM OVC065 03/M07 A2972 RMK AO2 SLP067 T00281072 53035
KFIT 051952Z AUTO 28008G21KT 10SM FEW039 OVC055 03/M05 A2968 RMK AO2 SLP053 T00331050
KFIT 051852Z AUTO 29012KT 10SM SCT050 04/M04 A2964 RMK AO2 SLP040 T00391044
KFIT 051752Z AUTO 28016G24KT 10SM OVC046 04/M04 A2961 RMK AO2 SLP031 T00391044 10050 21011 51007
KFIT 051652Z AUTO 28010G17KT 10SM SCT039 05/M04 A2960 RMK AO2 SLP028 T00501039
KFIT 051552Z AUTO 30013KT 10SM CLR 04/M03 A2960 RMK AO2 SLP027 T00441033
KFIT 051452Z AUTO 30014G20KT 10SM CLR 03/M03 A2959 RMK AO2 SLP024 T00331028 51017
KFIT 051352Z AUTO 28008KT 10SM CLR 02/M03 A2958 RMK AO2 SLP020 T00171033
KFIT 051252Z AUTO VRB05KT 9SM CLR 00/M04 A2957 RMK AO2 SLP015 T00001039
KFIT 051152Z AUTO 30007KT 10SM CLR M01/M04 A2954 RMK AO2 SLP008 T10061039 10000 21022 53022
KFIT 051052Z AUTO 29006KT 10SM CLR 00/M04 A2952 RMK AO2 SLP999 T00001039
KFIT 050952Z AUTO VRB05KT 10SM BKN090 00/M03 A2949 RMK AO2 SLP991 T00001033